createdAt,value
2023-01-30T00:01:03.782Z,39.45
2023-01-30T00:03:31.387Z,42.03
2023-01-30T00:05:59.003Z,39.22
2023-01-30T00:08:26.448Z,40.40
2023-01-30T00:10:53.718Z,35.85
2023-01-30T00:13:21.494Z,36.35
2023-01-30T00:15:49.152Z,41.25
2023-01-30T00:18:16.654Z,35.95
2023-01-30T00:20:43.952Z,34.25
2023-01-30T00:23:11.438Z,31.70
2023-01-30T00:25:38.747Z,42.78
2023-01-30T00:28:06.268Z,35.47
2023-01-30T00:30:33.594Z,44.20
2023-01-30T00:33:01.193Z,38.70
2023-01-30T00:35:28.827Z,39.15
2023-01-30T00:37:58.022Z,40.92
2023-01-30T00:40:27.181Z,37.53
2023-01-30T00:43:14.287Z,38.30
2023-01-30T00:46:03.855Z,37.83
2023-01-30T00:48:33.831Z,32.72
2023-01-30T00:51:01.061Z,35.95
2023-01-30T00:53:28.502Z,36.33
2023-01-30T00:55:56.105Z,41.50
2023-01-30T00:58:24.442Z,36.90
2023-01-30T01:00:52.596Z,35.58
2023-01-30T01:03:20.225Z,39.83
2023-01-30T01:05:47.708Z,33.70
2023-01-30T01:08:15.415Z,38.15
2023-01-30T01:10:42.658Z,37.92
2023-01-30T01:13:10.710Z,42.55
2023-01-30T01:15:38.202Z,42.28
2023-01-30T01:18:06.522Z,42.65
2023-01-30T01:20:34.356Z,34.72
2023-01-30T01:23:03.736Z,33.03
2023-01-30T01:25:31.002Z,40.00
2023-01-30T01:27:58.491Z,41.63
2023-01-30T01:30:25.931Z,42.40
2023-01-30T01:32:53.478Z,40.78
2023-01-30T01:35:20.732Z,32.90
2023-01-30T01:37:48.251Z,35.97
2023-01-30T01:40:39.264Z,39.42
2023-01-30T01:43:25.513Z,43.38
2023-01-30T01:45:56.987Z,33.88
2023-01-30T01:48:30.289Z,38.05
2023-01-30T01:51:03.176Z,35.17
2023-01-30T01:53:34.980Z,34.60
2023-01-30T01:56:04.175Z,41.60
2023-01-30T01:58:37.446Z,43.60
2023-01-30T02:01:05.723Z,37.97
2023-01-30T02:03:42.611Z,37.47
2023-01-30T02:06:12.129Z,37.42
2023-01-30T02:08:44.501Z,41.88
2023-01-30T02:11:32.003Z,40.53
2023-01-30T02:14:01.493Z,40.60
2023-01-30T02:16:28.643Z,40.05
2023-01-30T02:18:56.497Z,43.58
2023-01-30T02:21:41.868Z,39.08
2023-01-30T02:24:43.277Z,42.70
2023-01-30T02:27:29.373Z,40.42
2023-01-30T02:30:34.411Z,39.00
2023-01-30T02:33:45.863Z,39.15
2023-01-30T02:36:20.445Z,36.72
2023-01-30T02:39:02.496Z,36.60
2023-01-30T02:41:42.825Z,36.22
2023-01-30T02:44:26.649Z,42.25
2023-01-30T02:47:36.184Z,36.45
2023-01-30T02:50:19.203Z,36.53
2023-01-30T02:52:48.566Z,35.58
2023-01-30T02:55:23.608Z,38.63
2023-01-30T02:57:51.809Z,36.63
2023-01-30T03:00:28.681Z,36.35
2023-01-30T03:03:17.544Z,33.05
2023-01-30T03:05:44.754Z,32.85
2023-01-30T03:08:23.319Z,35.20
2023-01-30T03:11:03.585Z,34.97
2023-01-30T03:13:53.057Z,29.85
2023-01-30T03:16:28.523Z,30.40
2023-01-30T03:18:56.145Z,30.50
2023-01-30T03:21:23.308Z,30.58
2023-01-30T03:23:53.162Z,25.73
2023-01-30T03:26:24.524Z,31.65
2023-01-30T03:28:53.370Z,25.50
2023-01-30T03:31:20.874Z,26.35
2023-01-30T03:33:48.442Z,28.15
2023-01-30T03:36:15.850Z,28.92
2023-01-30T03:38:43.323Z,28.02
2023-01-30T03:41:11.098Z,25.30
2023-01-30T03:43:39.926Z,27.38
2023-01-30T03:46:07.626Z,37.67
2023-01-30T03:48:35.223Z,27.92
2023-01-30T03:51:02.542Z,34.60
2023-01-30T03:53:30.159Z,32.10
2023-01-30T03:55:57.418Z,31.52
2023-01-30T03:58:31.976Z,33.25
2023-01-30T04:01:04.207Z,33.35
2023-01-30T04:03:32.951Z,35.13
2023-01-30T04:06:00.707Z,33.50
2023-01-30T04:08:29.091Z,38.75
2023-01-30T04:10:56.554Z,32.58
2023-01-30T04:13:24.630Z,33.53
2023-01-30T04:15:52.154Z,31.85
2023-01-30T04:18:38.254Z,29.88
2023-01-30T04:21:19.172Z,33.63
2023-01-30T04:23:46.872Z,30.60
2023-01-30T04:26:17.424Z,30.67
2023-01-30T04:28:45.778Z,33.22
2023-01-30T04:31:14.424Z,29.95
2023-01-30T04:33:53.072Z,24.33
2023-01-30T04:36:20.458Z,28.30
2023-01-30T04:38:48.020Z,30.98
2023-01-30T04:41:17.607Z,23.05
2023-01-30T04:43:45.519Z,23.20
2023-01-30T04:46:25.199Z,26.55
2023-01-30T04:48:52.778Z,27.45
2023-01-30T04:51:20.048Z,30.48
2023-01-30T04:53:48.492Z,25.77
2023-01-30T04:56:15.768Z,25.80
2023-01-30T04:58:43.591Z,27.83
2023-01-30T05:01:16.946Z,29.75
2023-01-30T05:03:44.770Z,25.50
2023-01-30T05:06:12.047Z,26.42
2023-01-30T05:08:39.420Z,24.58
2023-01-30T05:11:06.872Z,26.35
2023-01-30T05:13:34.490Z,24.67
2023-01-30T05:16:01.826Z,28.65
2023-01-30T05:18:29.307Z,26.73
2023-01-30T05:21:04.195Z,28.40
2023-01-30T05:23:31.721Z,29.52
2023-01-30T05:25:59.784Z,26.80
2023-01-30T05:28:27.580Z,30.35
2023-01-30T05:30:55.433Z,27.90
2023-01-30T05:33:22.892Z,29.17
2023-01-30T05:35:50.753Z,28.30
2023-01-30T05:38:18.296Z,22.52
2023-01-30T05:40:45.504Z,27.52
2023-01-30T05:43:12.983Z,24.77
2023-01-30T05:45:40.269Z,23.95
2023-01-30T05:48:07.858Z,25.48
2023-01-30T05:50:35.244Z,27.70
2023-01-30T05:53:02.704Z,28.40
2023-01-30T05:55:29.956Z,31.13
2023-01-30T05:57:57.421Z,25.30
2023-01-30T06:00:24.847Z,27.08
2023-01-30T06:02:52.460Z,25.60
2023-01-30T06:05:19.960Z,27.67
2023-01-30T06:07:47.533Z,27.27
2023-01-30T06:10:14.806Z,28.45
2023-01-30T06:12:42.872Z,26.70
2023-01-30T06:15:10.882Z,26.50
2023-01-30T06:17:42.930Z,25.20
2023-01-30T06:20:10.979Z,28.60
2023-01-30T06:22:39.029Z,28.95
2023-01-30T06:25:06.589Z,29.92
2023-01-30T06:27:34.021Z,26.88
2023-01-30T06:30:01.322Z,31.33
2023-01-30T06:32:29.240Z,24.10
2023-01-30T06:34:56.481Z,26.63
2023-01-30T06:37:23.971Z,27.63
2023-01-30T06:39:51.139Z,27.95
2023-01-30T06:42:18.746Z,25.10
2023-01-30T06:44:45.923Z,27.50
2023-01-30T06:47:13.453Z,27.35
2023-01-30T06:49:40.559Z,27.02
2023-01-30T06:52:08.092Z,29.25
2023-01-30T06:54:35.316Z,27.40
2023-01-30T06:57:02.881Z,27.25
2023-01-30T06:59:30.034Z,29.05
2023-01-30T07:01:57.518Z,33.58
2023-01-30T07:04:24.934Z,34.95
2023-01-30T07:06:52.622Z,33.00
2023-01-30T07:09:19.825Z,31.02
2023-01-30T07:11:48.739Z,34.90
2023-01-30T07:14:16.004Z,27.50
2023-01-30T07:16:43.635Z,30.23
2023-01-30T07:19:10.987Z,33.63
2023-01-30T07:21:38.562Z,31.15
2023-01-30T07:24:06.082Z,32.78
2023-01-30T07:26:33.548Z,36.85
2023-01-30T07:29:00.870Z,33.35
2023-01-30T07:31:28.378Z,34.75
2023-01-30T07:33:55.615Z,34.45
2023-01-30T07:36:23.037Z,32.67
2023-01-30T07:38:50.251Z,34.38
2023-01-30T07:41:17.745Z,33.47
2023-01-30T07:43:44.962Z,30.90
2023-01-30T07:46:12.539Z,29.58
2023-01-30T07:48:39.654Z,38.25
2023-01-30T07:51:07.206Z,37.00
2023-01-30T07:53:34.545Z,32.60
2023-01-30T07:56:08.355Z,41.72
2023-01-30T07:58:35.924Z,37.40
2023-01-30T08:01:03.452Z,35.97
2023-01-30T08:03:30.607Z,38.15
2023-01-30T08:05:58.240Z,40.13
2023-01-30T08:08:25.469Z,39.58
2023-01-30T08:10:52.996Z,36.95
2023-01-30T08:13:20.183Z,39.60
2023-01-30T08:15:47.657Z,37.25
2023-01-30T08:18:14.805Z,36.80
2023-01-30T08:20:42.983Z,36.85
2023-01-30T08:23:10.257Z,40.65
2023-01-30T08:25:37.954Z,37.25
2023-01-30T08:28:05.261Z,40.42
2023-01-30T08:30:33.111Z,35.10
2023-01-30T08:33:00.391Z,38.22
2023-01-30T08:35:28.010Z,38.47
2023-01-30T08:37:55.440Z,39.15
2023-01-30T08:40:23.269Z,36.35
2023-01-30T08:42:50.375Z,41.05
2023-01-30T08:45:17.839Z,42.58
2023-01-30T08:47:44.968Z,35.72
2023-01-30T08:50:12.528Z,39.08
2023-01-30T08:52:39.732Z,43.17
2023-01-30T08:55:07.561Z,38.17
2023-01-30T08:57:34.835Z,44.05
2023-01-30T09:00:02.512Z,41.28
2023-01-30T09:02:29.822Z,38.88
2023-01-30T09:04:57.443Z,39.47
2023-01-30T09:07:24.696Z,41.75
2023-01-30T09:09:52.203Z,43.40
2023-01-30T09:12:19.365Z,41.05
2023-01-30T09:14:46.853Z,40.55
2023-01-30T09:17:14.287Z,44.40
2023-01-30T09:19:41.805Z,40.83
2023-01-30T09:22:09.057Z,36.25
2023-01-30T09:24:36.494Z,37.05
2023-01-30T09:27:03.761Z,43.85
2023-01-30T09:29:31.410Z,34.85
2023-01-30T09:31:59.041Z,40.85
2023-01-30T09:34:28.710Z,34.72
2023-01-30T09:36:57.319Z,40.58
2023-01-30T09:39:24.937Z,37.83
2023-01-30T09:42:19.901Z,36.53
2023-01-30T09:45:20.339Z,41.63
2023-01-30T09:48:03.399Z,38.85
2023-01-30T09:51:00.260Z,36.50
2023-01-30T09:53:48.194Z,42.88
2023-01-30T09:56:15.688Z,45.17
2023-01-30T09:58:54.516Z,40.80
2023-01-30T10:01:27.774Z,43.00
2023-01-30T10:04:04.963Z,40.90
2023-01-30T10:06:40.813Z,45.25
2023-01-30T10:09:29.526Z,47.03
2023-01-30T10:12:08.816Z,55.58
2023-01-30T10:15:20.135Z,48.30
2023-01-30T10:18:01.465Z,47.10
2023-01-30T10:20:48.148Z,41.70
2023-01-30T10:23:39.699Z,46.80
2023-01-30T10:26:14.357Z,39.15
2023-01-30T10:28:52.422Z,42.20
2023-01-30T10:31:33.617Z,40.60
2023-01-30T10:34:03.225Z,39.60
2023-01-30T10:36:43.492Z,38.03
2023-01-30T10:39:31.188Z,38.78
2023-01-30T10:42:11.919Z,39.83
2023-01-30T10:44:42.954Z,52.88
2023-01-30T10:47:23.036Z,83.88
2023-01-30T10:50:02.571Z,131.05
2023-01-30T10:52:53.873Z,276.63
2023-01-30T10:55:37.991Z,87.68
2023-01-30T10:58:39.129Z,201.07
2023-01-30T11:01:36.008Z,339.08
2023-01-30T11:04:13.680Z,555.70
2023-01-30T11:06:42.614Z,340.95
2023-01-30T11:09:10.324Z,314.67
2023-01-30T11:11:53.760Z,295.52
2023-01-30T11:14:21.088Z,421.05
2023-01-30T11:16:55.885Z,101.82
2023-01-30T11:19:34.439Z,379.30
2023-01-30T11:22:04.859Z,177.52
2023-01-30T11:24:38.208Z,274.08
2023-01-30T11:27:27.788Z,288.83
2023-01-30T11:30:14.755Z,159.52
2023-01-30T11:32:44.761Z,235.90
2023-01-30T11:35:14.975Z,102.22
2023-01-30T11:37:44.428Z,140.40
2023-01-30T11:40:17.859Z,57.30
2023-01-30T11:42:49.987Z,51.88
2023-01-30T11:45:30.339Z,39.33
2023-01-30T11:48:04.454Z,42.47
2023-01-30T11:50:45.767Z,40.17
2023-01-30T11:56:01.872Z,39.60
2023-01-30T11:58:33.629Z,43.80
2023-01-30T12:01:02.139Z,37.78
2023-01-30T12:03:30.413Z,38.45
2023-01-30T12:05:58.914Z,43.72
2023-01-30T12:08:41.741Z,46.20
2023-01-30T12:11:26.643Z,44.50
2023-01-30T12:14:09.471Z,42.58
2023-01-30T12:17:14.138Z,44.30
2023-01-30T12:20:05.735Z,39.47
2023-01-30T12:23:07.992Z,37.35
2023-01-30T12:25:44.173Z,42.55
2023-01-30T12:28:14.352Z,42.75
2023-01-30T12:30:44.472Z,42.17
2023-01-30T12:36:00.966Z,44.75
2023-01-30T12:38:59.874Z,37.65
2023-01-30T12:41:56.678Z,74.88
2023-01-30T12:44:48.114Z,100.68
2023-01-30T12:47:24.577Z,101.32
2023-01-30T12:50:14.096Z,114.72
2023-01-30T12:53:21.322Z,60.75
2023-01-30T12:56:12.347Z,70.85
2023-01-30T12:59:03.819Z,94.60
2023-01-30T13:01:55.305Z,52.60
2023-01-30T13:04:22.901Z,63.23
2023-01-30T13:07:36.477Z,41.17
2023-01-30T13:10:25.115Z,38.78
2023-01-30T13:13:15.197Z,38.70
2023-01-30T13:15:53.855Z,36.30
2023-01-30T13:18:42.751Z,37.92
2023-01-30T13:21:42.041Z,52.38
2023-01-30T13:24:39.825Z,48.55
2023-01-30T13:27:13.272Z,47.42
2023-01-30T13:29:42.043Z,30.58
2023-01-30T13:32:16.801Z,43.15
2023-01-30T13:34:47.873Z,39.00
2023-01-30T13:37:20.410Z,46.40
2023-01-30T13:39:50.170Z,49.75
2023-01-30T13:45:19.981Z,39.65
2023-01-30T13:48:28.709Z,60.42
2023-01-30T13:51:29.163Z,42.20
2023-01-30T13:54:07.185Z,35.38
2023-01-30T13:56:49.799Z,35.70
2023-01-30T14:04:41.797Z,63.78
2023-01-30T14:07:14.035Z,55.75
2023-01-30T14:10:12.608Z,63.42
2023-01-30T14:12:52.182Z,56.60
2023-01-30T14:15:24.878Z,61.05
2023-01-30T14:20:28.010Z,54.50
2023-01-30T14:23:00.955Z,59.80
2023-01-30T14:25:29.246Z,59.35
2023-01-30T14:28:16.738Z,55.10
2023-01-30T14:30:52.355Z,54.92
2023-01-30T14:33:19.814Z,57.47
2023-01-30T14:36:07.634Z,61.03
2023-01-30T14:38:37.258Z,172.27
2023-01-30T14:41:05.142Z,84.05
2023-01-30T14:43:41.807Z,132.70
2023-01-30T14:46:18.224Z,69.32
2023-01-30T14:48:49.984Z,80.63
2023-01-30T14:51:38.915Z,52.03
2023-01-30T14:54:12.731Z,61.40
2023-01-30T14:57:01.267Z,58.28
2023-01-30T14:59:59.357Z,57.67
2023-01-30T15:02:44.258Z,56.45
2023-01-30T15:05:18.818Z,62.35
2023-01-30T15:07:51.785Z,59.72
2023-01-30T15:10:39.915Z,59.50
2023-01-30T15:13:18.756Z,53.22
2023-01-30T15:16:08.798Z,50.13
2023-01-30T15:18:55.476Z,56.08
2023-01-30T15:21:37.201Z,51.05
2023-01-30T15:24:13.831Z,52.00
2023-01-30T15:27:02.005Z,57.58
2023-01-30T15:29:52.879Z,55.70
2023-01-30T15:32:23.677Z,45.38
2023-01-30T15:34:56.050Z,47.60
2023-01-30T15:37:35.618Z,49.95
2023-01-30T15:40:20.864Z,46.45
2023-01-30T15:43:09.841Z,47.88
2023-01-30T15:45:42.372Z,46.17
2023-01-30T15:48:42.461Z,39.38
2023-01-30T15:51:13.764Z,59.88
2023-01-30T15:53:43.993Z,39.97
2023-01-30T15:56:18.914Z,48.00
2023-01-30T15:58:46.548Z,44.60
2023-01-30T16:01:22.857Z,43.85
2023-01-30T16:03:51.077Z,38.13
2023-01-30T16:06:37.624Z,39.92
2023-01-30T16:09:18.108Z,34.30
2023-01-30T16:11:45.974Z,48.53
2023-01-30T16:14:18.524Z,36.95
2023-01-30T16:16:59.023Z,41.08
2023-01-30T16:19:32.158Z,38.10
2023-01-30T16:22:05.694Z,39.95
2023-01-30T16:24:36.108Z,39.10
2023-01-30T16:27:07.255Z,48.20
2023-01-30T16:29:53.239Z,43.13
2023-01-30T16:32:28.564Z,36.90
2023-01-30T16:35:15.280Z,37.42
2023-01-30T16:37:43.808Z,48.53
2023-01-30T16:40:11.070Z,38.50
2023-01-30T16:42:38.562Z,36.65
2023-01-30T16:45:19.494Z,40.75
2023-01-30T16:47:47.776Z,51.95
2023-01-30T16:50:22.457Z,44.55
2023-01-30T16:52:55.063Z,42.67
2023-01-30T16:57:57.818Z,37.65
2023-01-30T17:00:36.666Z,41.95
2023-01-30T17:03:26.693Z,33.45
2023-01-30T17:05:54.418Z,34.20
2023-01-30T17:08:49.393Z,39.22
2023-01-30T17:11:33.260Z,26.67
2023-01-30T17:14:22.438Z,32.55
2023-01-30T17:17:07.742Z,36.88
2023-01-30T17:19:36.454Z,33.05
2023-01-30T17:22:06.822Z,32.63
2023-01-30T17:24:35.692Z,33.42
2023-01-30T17:27:04.644Z,37.13
2023-01-30T17:29:49.134Z,39.53
2023-01-30T17:32:16.636Z,30.80
2023-01-30T17:34:44.219Z,27.83
2023-01-30T17:37:19.909Z,33.58
2023-01-30T17:39:47.685Z,31.55
2023-01-30T17:42:18.647Z,40.63
2023-01-30T17:44:46.148Z,28.50
2023-01-30T17:47:13.509Z,36.30
2023-01-30T17:49:40.981Z,37.45
2023-01-30T17:52:08.174Z,39.88
2023-01-30T17:54:35.693Z,34.40
2023-01-30T17:57:05.736Z,30.00
2023-01-30T17:59:34.813Z,27.70
2023-01-30T18:02:02.793Z,33.65
2023-01-30T18:04:30.460Z,30.30
2023-01-30T18:07:04.449Z,34.28
2023-01-30T18:09:32.242Z,29.52
2023-01-30T18:11:59.598Z,34.03
2023-01-30T18:14:27.248Z,32.47
2023-01-30T18:17:00.023Z,29.42
2023-01-30T18:19:29.111Z,35.53
2023-01-30T18:21:58.344Z,40.72
2023-01-30T18:24:26.198Z,33.35
2023-01-30T18:26:53.643Z,34.08
2023-01-30T18:29:21.231Z,32.70
2023-01-30T18:31:48.936Z,28.23
2023-01-30T18:34:16.686Z,30.65
2023-01-30T18:36:44.407Z,27.80
2023-01-30T18:39:14.710Z,35.72
2023-01-30T18:41:41.992Z,31.42
2023-01-30T18:44:11.021Z,24.50
2023-01-30T18:46:38.274Z,28.17
2023-01-30T18:49:06.445Z,28.02
2023-01-30T18:51:34.358Z,24.00
2023-01-30T18:54:02.543Z,28.75
2023-01-30T18:56:33.051Z,22.60
2023-01-30T18:59:03.922Z,31.10
2023-01-30T19:01:38.126Z,26.98
2023-01-30T19:04:08.521Z,28.75
2023-01-30T19:06:42.019Z,28.30
2023-01-30T19:09:14.329Z,30.50
2023-01-30T19:12:00.407Z,24.92
2023-01-30T19:14:28.175Z,20.48
2023-01-30T19:16:55.451Z,21.30
2023-01-30T19:19:23.561Z,22.13
2023-01-30T19:21:52.319Z,24.60
2023-01-30T19:24:20.159Z,26.08
2023-01-30T19:26:47.826Z,26.23
2023-01-30T19:29:16.243Z,23.65
2023-01-30T19:31:43.611Z,23.20
2023-01-30T19:34:12.052Z,28.73
2023-01-30T19:36:41.494Z,23.30
2023-01-30T19:39:10.128Z,25.83
2023-01-30T19:41:37.658Z,21.33
2023-01-30T19:44:07.547Z,26.10
2023-01-30T19:46:35.399Z,25.10
2023-01-30T19:49:03.710Z,29.92
2023-01-30T19:51:33.550Z,33.03
2023-01-30T19:54:07.283Z,27.67
2023-01-30T19:56:36.645Z,28.63
2023-01-30T19:59:05.569Z,27.80
2023-01-30T20:01:37.003Z,33.90
2023-01-30T20:04:05.376Z,31.92
2023-01-30T20:06:34.430Z,31.85
2023-01-30T20:09:07.509Z,32.30
2023-01-30T20:11:36.297Z,30.48
2023-01-30T20:14:06.050Z,30.50
2023-01-30T20:16:34.770Z,35.38
2023-01-30T20:19:07.904Z,30.38
2023-01-30T20:21:36.157Z,32.22
2023-01-30T20:24:04.538Z,33.83
2023-01-30T20:26:35.176Z,37.90
2023-01-30T20:29:04.282Z,33.35
2023-01-30T20:31:32.245Z,34.95
2023-01-30T20:34:02.637Z,28.70
2023-01-30T20:36:29.903Z,39.50
2023-01-30T20:39:02.032Z,36.58
2023-01-30T20:41:30.228Z,40.63
2023-01-30T20:43:58.092Z,43.88
2023-01-30T20:46:28.049Z,33.70
2023-01-30T20:48:57.716Z,39.03
2023-01-30T20:51:27.592Z,34.15
2023-01-30T20:54:04.070Z,40.38
2023-01-30T20:56:40.083Z,37.28
2023-01-30T20:59:08.581Z,36.35
2023-01-30T21:01:36.840Z,32.15
2023-01-30T21:04:07.579Z,34.75
2023-01-30T21:06:44.049Z,34.65
2023-01-30T21:09:16.501Z,33.92
2023-01-30T21:11:44.017Z,30.80
2023-01-30T21:14:11.868Z,27.67
2023-01-30T21:16:39.690Z,26.00
2023-01-30T21:19:38.162Z,28.83
2023-01-30T21:22:27.927Z,26.48
2023-01-30T21:26:09.449Z,29.30
2023-01-30T21:28:55.291Z,22.60
2023-01-30T21:31:42.295Z,34.70
2023-01-30T21:34:28.644Z,24.40
2023-01-30T21:37:33.373Z,33.75
2023-01-30T21:40:38.301Z,25.55
2023-01-30T21:43:24.590Z,23.20
2023-01-30T21:46:16.637Z,18.52
2023-01-30T21:49:02.689Z,23.02
2023-01-30T21:51:49.560Z,16.10
2023-01-30T21:54:35.537Z,28.08
2023-01-30T21:57:21.375Z,21.88
2023-01-30T22:00:08.442Z,18.08
2023-01-30T22:02:54.885Z,19.00
2023-01-30T22:05:44.213Z,18.75
2023-01-30T22:08:29.969Z,26.58
2023-01-30T22:11:19.496Z,24.45
2023-01-30T22:14:05.623Z,18.17
2023-01-30T22:16:51.827Z,19.90
2023-01-30T22:19:37.345Z,22.52
2023-01-30T22:22:25.174Z,24.33
2023-01-30T22:25:11.612Z,18.67
2023-01-30T22:27:57.900Z,16.85
2023-01-30T22:30:43.817Z,23.00
2023-01-30T22:33:30.520Z,19.02
2023-01-30T22:36:16.971Z,22.70
2023-01-30T22:39:04.862Z,21.20
2023-01-30T22:41:50.905Z,23.55
2023-01-30T22:44:37.596Z,16.90
2023-01-30T22:47:23.881Z,22.73
2023-01-30T22:50:10.546Z,14.38
2023-01-30T22:52:56.566Z,15.70
2023-01-30T22:55:42.970Z,18.95
2023-01-30T22:58:28.963Z,17.50
2023-01-30T23:01:24.482Z,17.42
2023-01-30T23:04:13.703Z,19.25
2023-01-30T23:06:59.770Z,23.05
2023-01-30T23:09:45.726Z,20.77
2023-01-30T23:12:50.705Z,17.17
2023-01-30T23:15:40.911Z,19.95
2023-01-30T23:18:45.779Z,23.25
2023-01-30T23:21:37.983Z,21.15
2023-01-30T23:24:24.189Z,18.65
2023-01-30T23:27:12.849Z,16.55
2023-01-30T23:29:58.825Z,18.10
2023-01-30T23:32:44.552Z,24.75
2023-01-30T23:35:31.823Z,16.02
2023-01-30T23:38:19.930Z,21.17
2023-01-30T23:41:12.445Z,21.00
2023-01-30T23:43:59.678Z,22.42
2023-01-30T23:46:45.689Z,22.30
2023-01-30T23:49:31.381Z,17.80
2023-01-30T23:52:17.268Z,21.27
2023-01-30T23:55:03.796Z,18.20
2023-01-30T23:57:50.546Z,22.10
